Time;durP1;ratioP1;P1;durP2;ratioP2;P2;SDS_P1;SDS_P2;PMS_P1;PMS_P2;Temp;Humidity;BMP_temperature;BMP_pressure;BME280_temperature;BME280_humidity;BME280_pressure;Samples;Min_cycle;Max_cycle;Signal;HPM_P1;HPM_P2
2023/04/09 00:02:25;;;;;;;;;;;;;;;16.34;49.40;101421.16;5095673;28;863;-45
2023/04/09 00:04:51;;;;;;;;;;;;;;;15.87;50.76;101411.47;5093648;28;1022;-45
2023/04/09 00:07:16;;;;;;;;;;;;;;;15.65;51.09;101408.66;5084254;28;1914;-42
2023/04/09 00:09:42;;;;;;;;;;;;;;;16.10;50.40;101419.75;5096212;28;1069;-45
2023/04/09 00:12:07;;;;;;;;;;;;;;;17.49;47.03;101407.41;5098944;28;1107;-47
2023/04/09 00:14:33;;;;;;;;;;;;;;;16.62;48.96;101413.78;5098504;28;1110;-42
2023/04/09 00:16:58;;;;;;;;;;;;;;;16.08;50.15;101411.75;5098956;28;1515;-44
2023/04/09 00:19:24;;;;;;;;;;;;;;;15.83;50.87;101415.00;5098937;28;1046;-44
2023/04/09 00:21:51;;;;;;;;;;;;;;;15.61;51.19;101412.19;5091030;28;1122;-43
2023/04/09 00:24:16;;;;;;;;;;;;;;;15.47;51.57;101412.50;5079894;28;1050;-39
2023/04/09 00:26:42;;;;;;;;;;;;;;;16.04;50.56;101411.44;5090113;28;1910;-42
2023/04/09 00:29:07;;;;;;;;;;;;;;;17.41;47.03;101416.97;5093058;28;1070;-42
2023/04/09 00:31:33;;;;;;;;;;;;;;;16.48;49.31;101415.25;5091339;28;1063;-45
2023/04/09 00:33:59;;;;;;;;;;;;;;;16.00;50.48;101423.19;5093814;28;1288;-45
2023/04/09 00:36:25;;;;;;;;;;;;;;;15.73;50.94;101410.97;5080202;28;1014;-41
2023/04/09 00:38:52;;;;;;;;;;;;;;;15.52;51.39;101417.25;5096972;28;1137;-41
2023/04/09 00:41:18;;;;;;;;;;;;;;;15.39;51.69;101416.50;5087654;28;1241;-42
2023/04/09 00:43:43;;;;;;;;;;;;;;;16.83;48.58;101408.47;5098325;28;1035;-43
2023/04/09 00:46:09;;;;;;;;;;;;;;;17.24;47.25;101403.38;5098313;28;1914;-43
2023/04/09 00:48:35;;;;;;;;;;;;;;;16.32;49.45;101406.84;5067423;28;1032;-45
2023/04/09 00:51:00;;;;;;;;;;;;;;;15.93;50.45;101406.06;5089629;28;868;-42
2023/04/09 00:53:26;;;;;;;;;;;;;;;15.71;51.02;101407.69;5093751;28;1209;-44
2023/04/09 00:55:52;;;;;;;;;;;;;;;15.66;51.36;101401.28;5080841;28;1019;-41
2023/04/09 00:58:17;;;;;;;;;;;;;;;17.23;47.59;101410.78;5097548;28;1034;-42
2023/04/09 01:00:43;;;;;;;;;;;;;;;16.70;48.80;101401.50;5071668;28;1139;-41
2023/04/09 01:03:09;;;;;;;;;;;;;;;16.17;49.96;101404.75;5074875;28;1344;-46
2023/04/09 01:05:40;;;;;;;;;;;;;;;15.89;50.79;101403.00;5098243;28;1061;-47
2023/04/09 01:08:08;;;;;;;;;;;;;;;15.67;51.11;101389.22;5071024;28;1197;-48
2023/04/09 01:10:43;;;;;;;;;;;;;;;15.53;51.50;101397.81;5098314;28;1113;-48
2023/04/09 01:13:15;;;;;;;;;;;;;;;17.07;47.93;101401.59;5049583;28;1235;-46
2023/04/09 01:15:59;;;;;;;;;;;;;;;16.64;48.95;101397.03;5086328;28;931;-48
2023/04/09 01:18:29;;;;;;;;;;;;;;;16.02;50.51;101399.91;5066879;28;1366;-48
2023/04/09 01:21:05;;;;;;;;;;;;;;;15.78;50.99;101401.16;5097055;28;1082;-48
2023/04/09 01:23:42;;;;;;;;;;;;;;;15.59;51.42;101389.69;5089049;28;1200;-49
2023/04/09 01:26:23;;;;;;;;;;;;;;;17.12;47.73;101391.75;5059953;28;1894;-47
2023/04/09 01:28:55;;;;;;;;;;;;;;;17.28;47.16;101390.78;5059467;28;1331;-49
2023/04/09 01:31:24;;;;;;;;;;;;;;;16.39;49.63;101390.19;5080147;28;1110;-47
2023/04/09 01:33:50;;;;;;;;;;;;;;;16.05;50.22;101382.91;5079346;28;1205;-48
2023/04/09 01:36:15;;;;;;;;;;;;;;;15.82;50.90;101385.91;5097120;28;1013;-48
2023/04/09 01:38:41;;;;;;;;;;;;;;;15.63;51.13;101382.63;5066365;28;1249;-47
2023/04/09 01:41:09;;;;;;;;;;;;;;;15.98;50.88;101387.78;5079576;28;1149;-43
2023/04/09 01:43:35;;;;;;;;;;;;;;;17.44;47.14;101386.22;5078302;28;1106;-47
2023/04/09 01:46:01;;;;;;;;;;;;;;;16.66;48.89;101384.72;5059652;28;1902;-46
2023/04/09 01:48:28;;;;;;;;;;;;;;;16.10;50.33;101381.31;5073720;28;1305;-48
2023/04/09 01:50:53;;;;;;;;;;;;;;;15.83;50.93;101388.38;5088972;28;831;-48
2023/04/09 01:53:19;;;;;;;;;;;;;;;15.64;51.09;101389.72;5091809;28;1058;-46
2023/04/09 01:55:44;;;;;;;;;;;;;;;15.47;51.66;101384.28;5079158;28;1491;-49
2023/04/09 01:58:10;;;;;;;;;;;;;;;16.83;48.47;101379.09;5077898;28;1059;-44
2023/04/09 02:00:39;;;;;;;;;;;;;;;17.09;47.75;101377.41;5059259;28;1466;-49
2023/04/09 02:03:05;;;;;;;;;;;;;;;16.21;50.09;101381.19;5055468;28;1178;-48
2023/04/09 02:05:31;;;;;;;;;;;;;;;15.92;50.66;101391.50;5058794;28;1256;-47
2023/04/09 02:07:57;;;;;;;;;;;;;;;15.64;51.44;101382.34;5060400;28;1902;-48
2023/04/09 02:10:23;;;;;;;;;;;;;;;15.50;51.47;101384.63;5071176;28;1130;-43
2023/04/09 02:12:50;;;;;;;;;;;;;;;15.95;50.90;101381.97;5090266;28;1083;-46
2023/04/09 02:15:15;;;;;;;;;;;;;;;17.36;47.13;101379.31;5078709;28;1310;-48
2023/04/09 02:17:41;;;;;;;;;;;;;;;16.87;48.29;101373.91;5064621;28;1197;-47
2023/04/09 02:20:07;;;;;;;;;;;;;;;16.21;49.79;101372.13;5076356;28;1039;-46
2023/04/09 02:22:32;;;;;;;;;;;;;;;15.89;50.91;101376.44;5076321;28;1035;-47
2023/04/09 02:24:58;;;;;;;;;;;;;;;15.72;51.01;101373.69;5076657;28;1066;-47
2023/04/09 02:27:23;;;;;;;;;;;;;;;15.52;51.51;101378.88;5089763;28;1901;-47
2023/04/09 02:29:49;;;;;;;;;;;;;;;17.08;47.83;101378.53;5083996;28;1154;-45
2023/04/09 02:32:15;;;;;;;;;;;;;;;16.72;48.56;101380.91;5082646;28;1189;-45
2023/04/09 02:34:41;;;;;;;;;;;;;;;16.13;50.30;101375.31;5096225;28;964;-48
2023/04/09 02:37:06;;;;;;;;;;;;;;;15.84;50.67;101384.56;5083315;28;1138;-47
2023/04/09 02:39:32;;;;;;;;;;;;;;;15.66;51.35;101384.84;5096551;28;847;-48
2023/04/09 02:41:58;;;;;;;;;;;;;;;16.39;49.78;101377.28;5077530;28;984;-46
2023/04/09 02:44:25;;;;;;;;;;;;;;;17.63;46.68;101367.38;5096490;28;1046;-47
2023/04/09 02:46:52;;;;;;;;;;;;;;;16.77;48.71;101370.00;5058259;28;1901;-46
2023/04/09 02:49:17;;;;;;;;;;;;;;;16.21;50.10;101370.22;5058343;28;1145;-45
2023/04/09 02:51:43;;;;;;;;;;;;;;;15.94;50.81;101378.38;5089433;28;1154;-47
2023/04/09 02:54:09;;;;;;;;;;;;;;;15.76;51.02;101373.19;5066481;28;1428;-48
2023/04/09 02:56:34;;;;;;;;;;;;;;;15.52;51.41;101367.91;5064834;28;1086;-46
2023/04/09 02:59:00;;;;;;;;;;;;;;;16.56;49.40;101362.63;5096470;28;1065;-48
2023/04/09 03:01:25;;;;;;;;;;;;;;;17.28;47.49;101363.28;5077754;28;1107;-49
2023/04/09 03:03:51;;;;;;;;;;;;;;;16.29;49.94;101362.63;5069924;28;1130;-48
2023/04/09 03:06:17;;;;;;;;;;;;;;;15.95;50.73;101360.84;5089881;28;2047;-45
2023/04/09 03:08:43;;;;;;;;;;;;;;;15.69;51.05;101365.13;5084725;28;1122;-47
2023/04/09 03:11:08;;;;;;;;;;;;;;;15.56;51.62;101367.16;5095429;28;1054;-45
2023/04/09 03:13:34;;;;;;;;;;;;;;;15.44;51.78;101363.69;5075997;28;1022;-45
2023/04/09 03:15:59;;;;;;;;;;;;;;;16.54;49.34;101367.56;5089659;28;894;-48
2023/04/09 03:18:26;;;;;;;;;;;;;;;16.96;48.10;101361.38;5083041;28;1062;-47
2023/04/09 03:20:51;;;;;;;;;;;;;;;16.07;50.14;101361.56;5064784;28;1194;-45
2023/04/09 03:23:17;;;;;;;;;;;;;;;15.79;50.96;101375.41;5076077;28;1066;-44
2023/04/09 03:25:45;;;;;;;;;;;;;;;15.53;51.64;101372.34;5058431;28;1981;-46
2023/04/09 03:28:14;;;;;;;;;;;;;;;16.43;49.73;101372.09;5077670;28;953;-49
2023/04/09 03:30:47;;;;;;;;;;;;;;;17.58;46.60;101370.06;5057928;28;1373;-49
2023/04/09 03:33:14;;;;;;;;;;;;;;;16.55;49.07;101370.06;5081178;28;1135;-48
2023/04/09 03:35:50;;;;;;;;;;;;;;;16.02;50.42;101375.22;5070265;28;1016;-46
2023/04/09 03:38:20;;;;;;;;;;;;;;;15.75;51.01;101377.81;5057683;28;1361;-48
2023/04/09 03:40:46;;;;;;;;;;;;;;;15.58;51.56;101375.13;5076822;28;940;-43
2023/04/09 03:43:11;;;;;;;;;;;;;;;17.05;48.06;101375.47;5079839;28;1078;-47
2023/04/09 03:45:43;;;;;;;;;;;;;;;16.77;48.40;101372.75;5059777;28;1905;-50
2023/04/09 03:48:18;;;;;;;;;;;;;;;16.10;50.27;101370.34;5061139;28;1520;-50
2023/04/09 03:50:44;;;;;;;;;;;;;;;15.81;51.04;101376.84;5052372;28;1261;-50
2023/04/09 03:53:14;;;;;;;;;;;;;;;15.56;51.55;101375.38;5074846;28;1240;-46
2023/04/09 03:55:41;;;;;;;;;;;;;;;15.64;51.35;101382.34;5069188;28;1190;-46
2023/04/09 03:58:14;;;;;;;;;;;;;;;17.26;47.57;101379.19;5066163;28;1200;-48
2023/04/09 04:00:40;;;;;;;;;;;;;;;16.57;49.15;101386.25;5060706;28;1158;-50
2023/04/09 04:03:24;;;;;;;;;;;;;;;15.96;50.52;101387.19;5060146;28;1095;-48
2023/04/09 04:06:06;;;;;;;;;;;;;;;15.69;51.25;101387.88;5060474;28;1913;-49
2023/04/09 04:08:46;;;;;;;;;;;;;;;15.53;51.47;101389.59;5061396;28;1524;-46
2023/04/09 04:11:13;;;;;;;;;;;;;;;17.04;48.05;101388.38;5060787;28;1328;-48
2023/04/09 04:13:39;;;;;;;;;;;;;;;16.65;48.68;101387.69;5053158;28;1245;-49
2023/04/09 04:16:07;;;;;;;;;;;;;;;16.03;50.49;101387.84;5065836;28;1271;-48
2023/04/09 04:18:34;;;;;;;;;;;;;;;15.83;50.86;101393.06;5059670;28;1424;-51
2023/04/09 04:21:00;;;;;;;;;;;;;;;15.63;51.50;101383.44;5079244;28;1065;-52
2023/04/09 04:23:26;;;;;;;;;;;;;;;16.90;48.68;101389.88;5061317;28;1162;-43
2023/04/09 04:26:08;;;;;;;;;;;;;;;17.69;46.28;101392.97;5060687;28;1910;-48
2023/04/09 04:28:35;;;;;;;;;;;;;;;16.58;49.02;101390.66;5055956;28;895;-51
2023/04/09 04:31:01;;;;;;;;;;;;;;;16.16;50.21;101392.13;5058284;28;1162;-49
2023/04/09 04:33:29;;;;;;;;;;;;;;;15.88;50.69;101395.88;5061105;28;1228;-48
2023/04/09 04:36:02;;;;;;;;;;;;;;;15.66;51.37;101399.38;5061089;28;1429;-48
2023/04/09 04:38:35;;;;;;;;;;;;;;;15.53;51.39;101399.75;5060783;28;1186;-49
2023/04/09 04:41:05;;;;;;;;;;;;;;;16.92;48.39;101382.22;5064730;28;1241;-47
2023/04/09 04:43:33;;;;;;;;;;;;;;;16.79;48.44;101388.09;5054780;28;1295;-46
2023/04/09 04:45:59;;;;;;;;;;;;;;;16.11;50.22;101388.47;5043616;28;1902;-49
2023/04/09 04:48:28;;;;;;;;;;;;;;;15.81;50.84;101395.22;5036537;28;1521;-49
2023/04/09 04:50:57;;;;;;;;;;;;;;;15.84;50.99;101394.72;5038474;28;1079;-50
2023/04/09 04:53:25;;;;;;;;;;;;;;;17.42;47.30;101400.22;5029705;28;1018;-46
2023/04/09 04:55:53;;;;;;;;;;;;;;;17.01;47.88;101399.91;5037099;28;1245;-47
2023/04/09 04:58:23;;;;;;;;;;;;;;;16.33;49.84;101394.78;5037209;28;1114;-45
2023/04/09 05:00:53;;;;;;;;;;;;;;;15.98;50.68;101406.16;5037221;28;1421;-53
2023/04/09 05:03:19;;;;;;;;;;;;;;;15.81;51.05;101403.44;5038642;28;1222;-49
2023/04/09 05:06:20;;;;;;;;;;;;;;;15.63;51.35;101399.88;5043021;28;1967;-50
2023/04/09 05:08:45;;;;;;;;;;;;;;;17.10;47.88;101406.56;5038104;28;1101;-47
2023/04/09 05:11:11;;;;;;;;;;;;;;;15.99;50.28;101407.78;5037723;28;1159;-49
2023/04/09 05:13:37;;;;;;;;;;;;;;;15.49;50.34;101401.31;5038415;28;1402;-49
2023/04/09 05:16:07;;;;;;;;;;;;;;;16.54;49.39;101398.59;5027783;28;1164;-51
2023/04/09 05:18:35;;;;;;;;;;;;;;;15.74;50.20;101409.91;5030055;28;1111;-47
2023/04/09 05:21:00;;;;;;;;;;;;;;;15.46;49.56;101407.28;5036863;28;1485;-48
2023/04/09 05:23:28;;;;;;;;;;;;;;;16.43;49.35;101403.13;5036617;28;1238;-47
2023/04/09 05:25:54;;;;;;;;;;;;;;;15.62;50.22;101409.19;5020159;28;1902;-48
2023/04/09 05:28:33;;;;;;;;;;;;;;;15.49;49.77;101417.78;5038670;28;1316;-44
2023/04/09 05:31:11;;;;;;;;;;;;;;;15.99;49.79;101416.03;5026948;28;1131;-42
2023/04/09 05:33:43;;;;;;;;;;;;;;;15.76;50.42;101420.63;5023132;28;1345;-44
2023/04/09 05:36:16;;;;;;;;;;;;;;;17.24;48.05;101417.94;5036628;28;1133;-47
2023/04/09 05:38:42;;;;;;;;;;;;;;;16.01;49.64;101416.63;5043012;28;1112;-48
2023/04/09 05:41:08;;;;;;;;;;;;;;;16.81;49.38;101416.16;5041419;28;1604;-50
2023/04/09 05:43:37;;;;;;;;;;;;;;;16.54;49.11;101417.81;5022545;28;1326;-52
2023/04/09 05:46:03;;;;;;;;;;;;;;;16.04;49.38;101419.66;5065457;28;1984;-50
2023/04/09 05:48:29;;;;;;;;;;;;;;;15.83;48.61;101415.00;5077502;28;1182;-48
2023/04/09 05:50:55;;;;;;;;;;;;;;;17.13;48.37;101423.63;5059789;28;1268;-52
2023/04/09 05:53:23;;;;;;;;;;;;;;;16.01;49.75;101425.66;5068649;28;1304;-50
2023/04/09 05:55:49;;;;;;;;;;;;;;;16.13;49.80;101424.72;5059618;28;1115;-49
2023/04/09 05:58:17;;;;;;;;;;;;;;;16.43;49.55;101424.25;5059278;28;1409;-49
2023/04/09 06:00:43;;;;;;;;;;;;;;;16.04;50.28;101427.88;5077188;28;1098;-49
2023/04/09 06:03:09;;;;;;;;;;;;;;;17.94;46.59;101420.66;5077437;28;1193;-46
2023/04/09 06:05:34;;;;;;;;;;;;;;;16.55;49.28;101419.47;5079737;28;912;-45
2023/04/09 06:08:00;;;;;;;;;;;;;;;16.05;49.21;101423.25;5055243;28;1980;-52
2023/04/09 06:10:25;;;;;;;;;;;;;;;15.88;48.16;101426.03;5061821;28;1129;-47
2023/04/09 06:12:51;;;;;;;;;;;;;;;15.72;47.75;101423.06;5053601;28;1350;-48
2023/04/09 06:15:17;;;;;;;;;;;;;;;16.99;48.30;101423.22;5058849;28;1102;-49
2023/04/09 06:17:43;;;;;;;;;;;;;;;16.05;49.59;101443.28;5079439;28;829;-49
2023/04/09 06:20:09;;;;;;;;;;;;;;;15.84;48.69;101433.13;5084852;28;1128;-56
2023/04/09 06:22:34;;;;;;;;;;;;;;;16.62;49.08;101434.91;5082063;28;1128;-53
2023/04/09 06:25:00;;;;;;;;;;;;;;;16.26;49.28;101446.28;5066905;28;1166;-50
2023/04/09 06:27:26;;;;;;;;;;;;;;;15.89;49.03;101446.88;5068639;28;1957;-52
2023/04/09 06:29:51;;;;;;;;;;;;;;;17.13;48.42;101449.19;5078149;28;949;-51
2023/04/09 06:32:17;;;;;;;;;;;;;;;16.14;49.42;101446.41;5056857;28;1293;-52
2023/04/09 06:34:42;;;;;;;;;;;;;;;16.59;49.56;101444.47;5082852;28;1193;-47
2023/04/09 06:37:08;;;;;;;;;;;;;;;16.58;49.14;101443.66;5077683;28;1058;-48
2023/04/09 06:39:34;;;;;;;;;;;;;;;16.07;48.81;101452.09;5059049;28;1036;-51
2023/04/09 06:41:59;;;;;;;;;;;;;;;17.13;48.50;101449.19;5076750;28;995;-48
2023/04/09 06:44:45;;;;;;;;;;;;;;;16.29;49.11;101451.28;5053755;28;1136;-49
2023/04/09 06:47:11;;;;;;;;;;;;;;;15.93;48.76;101458.19;5076145;28;1918;-51
2023/04/09 06:49:36;;;;;;;;;;;;;;;15.99;48.58;101454.44;5076346;28;1209;-49
2023/04/09 06:52:02;;;;;;;;;;;;;;;16.29;49.44;101451.28;5077396;28;1225;-50
2023/04/09 06:54:28;;;;;;;;;;;;;;;15.89;49.12;101446.88;5087469;28;1146;-44
2023/04/09 06:56:53;;;;;;;;;;;;;;;16.48;48.95;101450.94;5076369;28;1022;-44
2023/04/09 06:59:19;;;;;;;;;;;;;;;16.52;49.11;101443.84;5076518;28;1066;-56
2023/04/09 07:01:46;;;;;;;;;;;;;;;15.99;48.86;101448.94;5076491;28;1113;-50
2023/04/09 07:04:12;;;;;;;;;;;;;;;17.54;47.36;101435.75;5077550;28;1224;-51
2023/04/09 07:06:39;;;;;;;;;;;;;;;16.34;49.23;101434.88;5062516;28;1967;-50
2023/04/09 07:09:04;;;;;;;;;;;;;;;16.07;48.49;101437.53;5076569;28;1189;-49
2023/04/09 07:11:30;;;;;;;;;;;;;;;17.09;48.45;101440.63;5076080;28;1030;-53
2023/04/09 07:13:56;;;;;;;;;;;;;;;16.29;48.88;101440.28;5076022;28;1070;-52
2023/04/09 07:16:22;;;;;;;;;;;;;;;16.57;49.20;101431.00;5078022;28;1092;-53
2023/04/09 07:18:47;;;;;;;;;;;;;;;16.78;48.74;101442.22;5076984;28;1149;-52
2023/04/09 07:21:13;;;;;;;;;;;;;;;16.19;48.99;101445.66;5077154;28;1182;-53
2023/04/09 07:23:39;;;;;;;;;;;;;;;17.34;47.92;101441.94;5080409;28;1217;-51
2023/04/09 07:26:05;;;;;;;;;;;;;;;16.39;49.21;101436.84;5079679;28;1981;-47
2023/04/09 07:28:30;;;;;;;;;;;;;;;16.08;48.42;101444.69;5082461;28;1120;-45
2023/04/09 07:30:56;;;;;;;;;;;;;;;17.24;47.87;101439.94;5066141;28;1130;-49
2023/04/09 07:33:22;;;;;;;;;;;;;;;16.31;48.97;101442.78;5070765;28;1087;-50
2023/04/09 07:35:47;;;;;;;;;;;;;;;16.07;48.45;101441.13;5079706;28;987;-46
2023/04/09 07:38:13;;;;;;;;;;;;;;;16.99;48.31;101439.72;5070379;28;1344;-47
2023/04/09 07:40:39;;;;;;;;;;;;;;;16.19;48.97;101442.91;5091598;28;1046;-50
2023/04/09 07:43:04;;;;;;;;;;;;;;;16.01;47.97;101439.38;5082189;28;1053;-49
2023/04/09 07:45:30;;;;;;;;;;;;;;;16.96;48.24;101443.81;5065651;28;1292;-48
2023/04/09 07:47:55;;;;;;;;;;;;;;;16.25;48.90;101433.66;5061989;28;1913;-48
2023/04/09 07:50:21;;;;;;;;;;;;;;;15.97;48.18;101438.22;5080976;28;1090;-49
2023/04/09 07:52:47;;;;;;;;;;;;;;;15.82;47.74;101440.75;5095137;28;1136;-52
2023/04/09 07:55:12;;;;;;;;;;;;;;;17.05;47.85;101446.91;5085272;28;1163;-53
2023/04/09 07:57:38;;;;;;;;;;;;;;;16.17;48.81;101443.19;5079181;28;1050;-50
2023/04/09 08:00:04;;;;;;;;;;;;;;;17.14;48.06;101439.00;5079113;28;1042;-49
2023/04/09 08:02:38;;;;;;;;;;;;;;;16.73;49.01;101437.50;5079018;28;1018;-49
2023/04/09 08:05:04;;;;;;;;;;;;;;;16.27;48.92;101444.38;5080371;28;1130;-53
2023/04/09 08:07:29;;;;;;;;;;;;;;;15.90;48.42;101437.56;5067330;28;1976;-48
2023/04/09 08:09:55;;;;;;;;;;;;;;;16.85;48.56;101442.03;5079626;28;1177;-53
2023/04/09 08:12:21;;;;;;;;;;;;;;;16.08;48.99;101437.28;5079256;28;1139;-48
2023/04/09 08:14:46;;;;;;;;;;;;;;;15.90;48.41;101441.13;5078916;28;1117;-48
2023/04/09 08:17:12;;;;;;;;;;;;;;;17.12;48.01;101438.47;5084304;28;1138;-50
2023/04/09 08:19:37;;;;;;;;;;;;;;;16.24;48.84;101440.22;5082287;28;1066;-45
2023/04/09 08:22:03;;;;;;;;;;;;;;;15.95;48.34;101439.56;5079139;28;1062;-50
2023/04/09 08:24:28;;;;;;;;;;;;;;;16.53;48.95;101435.34;5078711;28;1197;-54
2023/04/09 08:26:55;;;;;;;;;;;;;;;16.01;48.64;101450.34;5078604;28;1906;-50
2023/04/09 08:29:21;;;;;;;;;;;;;;;15.88;47.71;101442.50;5080386;28;1130;-47
2023/04/09 08:31:46;;;;;;;;;;;;;;;17.16;47.89;101447.84;5078343;28;1129;-51
2023/04/09 08:34:14;;;;;;;;;;;;;;;16.18;49.08;101444.00;5078860;28;1121;-52
2023/04/09 08:36:39;;;;;;;;;;;;;;;16.41;49.00;101437.41;5079086;28;1054;-49
2023/04/09 08:39:05;;;;;;;;;;;;;;;16.84;48.38;101441.16;5078413;28;1070;-52
2023/04/09 08:41:31;;;;;;;;;;;;;;;16.19;48.87;101445.66;5085219;28;1127;-50
2023/04/09 08:43:56;;;;;;;;;;;;;;;17.06;48.26;101441.16;5070756;28;1054;-49
2023/04/09 08:46:22;;;;;;;;;;;;;;;16.40;49.01;101447.56;5088247;28;1921;-48
2023/04/09 08:48:48;;;;;;;;;;;;;;;16.35;49.11;101442.00;5078536;28;1065;-45
2023/04/09 08:51:22;;;;;;;;;;;;;;;17.17;47.92;101438.50;5078441;28;1066;-50
2023/04/09 08:53:51;;;;;;;;;;;;;;;16.31;48.61;101443.59;5086047;28;998;-47
2023/04/09 08:56:17;;;;;;;;;;;;;;;16.03;48.38;101439.97;5062278;28;1157;-50
2023/04/09 08:58:43;;;;;;;;;;;;;;;16.95;48.65;101436.66;5070015;28;1078;-50
2023/04/09 09:01:29;;;;;;;;;;;;;;;16.32;48.82;101437.03;5071742;28;1351;-52
2023/04/09 09:03:59;;;;;;;;;;;;;;;15.91;48.26;101437.31;5063084;28;1233;-53
2023/04/09 09:06:28;;;;;;;;;;;;;;;16.90;48.27;101428.34;5078953;28;1910;-53
2023/04/09 09:09:05;;;;;;;;;;;;;;;16.07;48.85;101432.91;5058488;28;1595;-53
2023/04/09 09:11:30;;;;;;;;;;;;;;;16.39;48.66;101428.59;5062038;28;1306;-53
2023/04/09 09:13:56;;;;;;;;;;;;;;;16.61;48.64;101434.06;5077906;28;1035;-55
2023/04/09 09:16:22;;;;;;;;;;;;;;;16.20;48.50;101439.06;5078167;28;1200;-55
2023/04/09 09:18:48;;;;;;;;;;;;;;;17.64;47.21;101426.75;5081697;28;836;-46
2023/04/09 09:21:14;;;;;;;;;;;;;;;16.55;48.64;101435.09;5077996;28;1225;-47
2023/04/09 09:23:41;;;;;;;;;;;;;;;16.20;48.42;101431.69;5074911;28;1122;-46
2023/04/09 09:26:36;;;;;;;;;;;;;;;16.62;48.99;101433.00;5057952;28;1914;-48
2023/04/09 09:29:02;;;;;;;;;;;;;;;16.47;49.07;101427.34;5044353;28;1420;-50
2023/04/09 09:31:28;;;;;;;;;;;;;;;16.10;48.65;101436.19;5049641;28;1005;-46
2023/04/09 09:33:54;;;;;;;;;;;;;;;15.97;47.72;101438.22;5057648;28;1266;-47
2023/04/09 09:36:30;;;;;;;;;;;;;;;17.12;47.95;101425.53;5046168;28;1593;-49
2023/04/09 09:38:56;;;;;;;;;;;;;;;16.30;48.55;101427.38;5066992;28;1011;-47
2023/04/09 09:41:22;;;;;;;;;;;;;;;17.94;46.86;101425.34;5078203;28;1094;-48
2023/04/09 09:43:47;;;;;;;;;;;;;;;16.99;48.72;101426.78;5088042;28;1058;-47
2023/04/09 09:46:14;;;;;;;;;;;;;;;16.50;48.60;101421.31;5076798;28;1968;-49
2023/04/09 09:48:40;;;;;;;;;;;;;;;16.16;48.19;101418.72;5077217;28;1129;-48
2023/04/09 09:51:09;;;;;;;;;;;;;;;17.17;48.21;101413.78;5077254;28;1489;-47
2023/04/09 09:53:38;;;;;;;;;;;;;;;16.46;48.76;101407.28;5061859;28;1131;-47
2023/04/09 09:56:04;;;;;;;;;;;;;;;16.08;48.19;101412.59;5066682;28;1026;-47
2023/04/09 09:58:37;;;;;;;;;;;;;;;16.10;47.12;101411.50;5076726;28;1238;-46
2023/04/09 10:01:10;;;;;;;;;;;;;;;16.58;48.01;101407.97;5077267;28;1114;-46
2023/04/09 10:03:37;;;;;;;;;;;;;;;16.46;48.54;101401.78;5059439;28;1054;-48
2023/04/09 10:06:03;;;;;;;;;;;;;;;16.05;48.19;101396.63;5079864;28;1914;-48
2023/04/09 10:08:29;;;;;;;;;;;;;;;17.30;47.91;101404.25;5085204;28;1121;-48
2023/04/09 10:10:55;;;;;;;;;;;;;;;16.31;48.89;101399.69;5081943;28;1085;-48
2023/04/09 10:13:24;;;;;;;;;;;;;;;17.19;48.14;101393.16;5063085;28;1111;-47
2023/04/09 10:15:50;;;;;;;;;;;;;;;16.93;48.58;101398.44;5060627;28;1239;-49
2023/04/09 10:18:16;;;;;;;;;;;;;;;16.38;48.59;101405.84;5082887;28;1035;-47
2023/04/09 10:20:47;;;;;;;;;;;;;;;16.16;47.92;101399.50;5061711;28;1109;-45
2023/04/09 10:23:32;;;;;;;;;;;;;;;16.03;47.55;101398.81;5059548;28;1023;-47
2023/04/09 10:25:57;;;;;;;;;;;;;;;17.17;47.92;101389.03;5076317;28;1098;-44
2023/04/09 10:28:23;;;;;;;;;;;;;;;16.25;48.98;101395.22;5081537;28;1974;-46
2023/04/09 10:30:48;;;;;;;;;;;;;;;16.96;48.35;101394.34;5072528;28;922;-47
2023/04/09 10:33:25;;;;;;;;;;;;;;;16.95;48.38;101403.69;5063460;28;1056;-47
2023/04/09 10:35:50;;;;;;;;;;;;;;;16.31;48.75;101394.19;5076550;28;1023;-44
2023/04/09 10:38:16;;;;;;;;;;;;;;;16.10;47.95;101392.31;5077034;28;1034;-49
2023/04/09 10:40:46;;;;;;;;;;;;;;;16.80;48.45;101396.09;5076427;28;1197;-49
2023/04/09 10:43:11;;;;;;;;;;;;;;;16.17;48.60;101387.44;5079975;28;978;-49
2023/04/09 10:45:40;;;;;;;;;;;;;;;17.32;47.76;101383.66;5076484;28;1376;-47
2023/04/09 10:48:10;;;;;;;;;;;;;;;16.71;48.53;101387.50;5075343;28;1910;-45
2023/04/09 10:50:37;;;;;;;;;;;;;;;16.21;48.44;101381.19;5076357;28;1200;-48
2023/04/09 10:53:02;;;;;;;;;;;;;;;16.14;47.67;101369.56;5076121;28;1033;-46
2023/04/09 10:55:31;;;;;;;;;;;;;;;16.02;47.01;101368.88;5086719;28;1228;-45
2023/04/09 10:57:57;;;;;;;;;;;;;;;16.74;48.39;101367.75;5076800;28;1107;-48
2023/04/09 11:00:22;;;;;;;;;;;;;;;16.20;48.11;101360.34;5076128;28;1079;-48
2023/04/09 11:03:08;;;;;;;;;;;;;;;17.90;46.99;101360.91;5076519;28;1047;-46
2023/04/09 11:05:35;;;;;;;;;;;;;;;16.86;48.54;101361.28;5051945;28;1976;-46
2023/04/09 11:08:10;;;;;;;;;;;;;;;16.42;48.15;101357.56;5080641;28;1976;-49
2023/04/09 11:10:36;;;;;;;;;;;;;;;16.36;48.45;101364.06;5063913;28;1059;-48
2023/04/09 11:13:02;;;;;;;;;;;;;;;16.59;48.72;101356.63;5076759;28;1197;-46
2023/04/09 11:15:28;;;;;;;;;;;;;;;16.23;48.50;101351.59;5076310;28;1062;-46
2023/04/09 11:17:53;;;;;;;;;;;;;;;16.10;47.56;101348.41;5076612;28;1133;-46
2023/04/09 11:20:20;;;;;;;;;;;;;;;17.10;47.79;101339.78;5085742;28;896;-48
2023/04/09 11:22:45;;;;;;;;;;;;;;;16.35;48.61;101340.44;5076164;28;1073;-47
2023/04/09 11:25:16;;;;;;;;;;;;;;;16.10;47.94;101338.25;5076969;28;1104;-47
2023/04/09 11:27:43;;;;;;;;;;;;;;;16.61;47.94;101340.72;5057964;28;1902;-46
2023/04/09 11:30:09;;;;;;;;;;;;;;;16.51;48.31;101337.84;5076792;28;1050;-45
2023/04/09 11:32:34;;;;;;;;;;;;;;;16.06;48.11;101329.72;5065415;28;1162;-47
2023/04/09 11:35:00;;;;;;;;;;;;;;;16.98;47.84;101331.72;5076148;28;1042;-47
2023/04/09 11:37:25;;;;;;;;;;;;;;;16.43;48.26;101325.44;5076415;28;1043;-47
2023/04/09 11:39:53;;;;;;;;;;;;;;;16.88;48.23;101318.72;5075664;28;1134;-46
2023/04/09 11:42:20;;;;;;;;;;;;;;;17.50;47.36;101321.06;5076769;28;1070;-46
2023/04/09 11:44:46;;;;;;;;;;;;;;;16.56;48.42;101318.69;5084864;28;1107;-47
2023/04/09 11:47:12;;;;;;;;;;;;;;;16.27;48.21;101315.38;5057949;28;1975;-42
2023/04/09 11:49:38;;;;;;;;;;;;;;;16.11;47.37;101301.50;5057503;28;1070;-49
2023/04/09 11:52:03;;;;;;;;;;;;;;;16.46;47.91;101305.72;5075872;28;1082;-46
2023/04/09 11:54:32;;;;;;;;;;;;;;;16.77;48.53;101298.59;5077427;28;1194;-48
2023/04/09 11:56:58;;;;;;;;;;;;;;;16.31;48.61;101305.56;5077199;28;1097;-46
2023/04/09 11:59:24;;;;;;;;;;;;;;;18.08;46.72;101310.91;5075704;28;1134;-46
2023/04/09 12:01:50;;;;;;;;;;;;;;;16.76;48.78;101302.41;5076155;28;1071;-47
2023/04/09 12:04:20;;;;;;;;;;;;;;;16.46;48.00;101293.91;5075611;28;1034;-45
2023/04/09 12:06:45;;;;;;;;;;;;;;;16.19;47.64;101298.31;5080792;28;1905;-48
2023/04/09 12:09:12;;;;;;;;;;;;;;;16.89;47.91;101301.16;5087950;28;1120;-49
2023/04/09 12:11:40;;;;;;;;;;;;;;;16.30;48.21;101291.00;5079229;28;1117;-48
2023/04/09 12:14:06;;;;;;;;;;;;;;;16.05;47.76;101292.41;5090837;28;1053;-46
2023/04/09 12:16:32;;;;;;;;;;;;;;;16.64;47.91;101296.25;5080780;28;1041;-47
2023/04/09 12:19:07;;;;;;;;;;;;;;;16.60;48.46;101298.69;5083146;28;1066;-48
2023/04/09 12:21:49;;;;;;;;;;;;;;;16.20;47.99;101293.63;5079664;28;1177;-48
2023/04/09 12:24:18;;;;;;;;;;;;;;;16.78;47.97;101288.41;5066221;28;1050;-47
2023/04/09 12:26:46;;;;;;;;;;;;;;;16.56;48.31;101283.00;5079136;28;1980;-46
2023/04/09 12:29:12;;;;;;;;;;;;;;;16.21;48.05;101289.81;5079082;28;1031;-45
2023/04/09 12:31:38;;;;;;;;;;;;;;;17.21;47.57;101283.81;5078893;28;1274;-44
2023/04/09 12:34:04;;;;;;;;;;;;;;;16.34;48.69;101283.06;5071292;28;924;-50
2023/04/09 12:36:29;;;;;;;;;;;;;;;16.28;48.60;101279.44;5079253;28;1031;-45
2023/04/09 12:38:55;;;;;;;;;;;;;;;17.13;47.55;101283.50;5078955;28;1078;-46
2023/04/09 12:41:20;;;;;;;;;;;;;;;16.36;48.48;101284.47;5075457;28;1181;-47
2023/04/09 12:43:46;;;;;;;;;;;;;;;16.13;47.61;101295.75;5080910;28;1050;-50
2023/04/09 12:46:12;;;;;;;;;;;;;;;16.90;47.76;101293.75;5079334;28;1902;-49
2023/04/09 12:48:38;;;;;;;;;;;;;;;16.48;48.31;101299.94;5078916;28;1170;-53
2023/04/09 12:51:03;;;;;;;;;;;;;;;16.10;47.87;101288.06;5078722;28;1035;-49